Flight Track Log - Related Links

Times and Time Zones

All times are in EDT time to prevent confusion due to time zone crossing. See the UAL1259 flight status page for this flight to view local times or setup timezone preferences in your user account.


Time Position Orientation Groundspeed Altitude Reporting Facility
EDT Latitude Longitude Course Direction KTS MPH feet Rate Location/Type
Mon 03:43:12 PM 41.9430 -87.9120 217° Southwest 169 194 1,400  Level FlightAware ADS-B
Mon 03:43:42 PM 41.9230 -87.9370 223° Southwest 208 239 2,000 1,418 Climbing FlightAware ADS-B
Mon 03:44:07 PM 41.9040 -87.9620 224° Southwest 231 266 2,700 2,182 Climbing FlightAware ADS-B
Mon 03:44:37 PM 41.8830 -87.9920 227° Southwest 240 276 4,000 2,509 Climbing FlightAware ADS-B
Mon 03:45:02 PM 41.8640 -88.0220 230° Southwest 256 295 5,000 2,550 Climbing FlightAware ADS-B
Mon 03:45:17 PM 41.8560 -88.0440 244° Southwest 260 299 5,700 2,800 Climbing FlightAware ADS-B
Mon 03:45:32 PM 41.8490 -88.0680 249° West 268 308 6,400 2,850 Climbing FlightAware ADS-B
Mon 03:45:57 PM 41.8410 -88.1090 255° West 269 310 7,600 2,618 Climbing FlightAware ADS-B
Mon 03:46:27 PM 41.8580 -88.1490 300° West 290 334 8,800 2,560 Climbing FlightAware ADS-B
Mon 03:47:12 PM 41.9050 -88.2020 320° Northwest 291 335 10,800 2,727 Climbing FlightAware ADS-B
Mon 03:47:22 PM 41.9080 -88.2190 283° West 284 327 11,300 1,200 Climbing FlightAware ADS-B
Mon 03:48:02 PM 41.9090 -88.2900 271° West 283 326 11,800 545 Climbing FlightAware ADS-B
Mon 03:48:17 PM 41.9140 -88.3160 284° West 286 329 11,800 700 Level FlightAware ADS-B
Mon 03:49:02 PM 41.9410 -88.3920 296° West 324 373 12,500 1,553 Climbing FlightAware ADS-B
Mon 03:49:42 PM 41.9680 -88.4680 296° West 340 391 14,000 2,259 Climbing FlightAware ADS-B
Mon 03:50:27 PM 41.9990 -88.5550 296° West 350 403 15,700 2,188 Climbing FlightAware ADS-B
Mon 03:51:07 PM 42.0280 -88.6340 296° West 360 414 17,100 2,175 Climbing FlightAware ADS-B
Mon 03:51:47 PM 42.0570 -88.7150 296° West 361 415 18,600 2,118 Climbing FlightAware ADS-B
Mon 03:52:32 PM 42.0660 -88.8120 277° West 360 414 20,100 1,976 Climbing FlightAware ADS-B
Mon 03:53:12 PM 42.0730 -88.9040 276° West 366 421 21,400 1,694 Climbing FlightAware ADS-B
Mon 03:53:57 PM 42.0810 -89.0080 276° West 378 435 22,500 1,553 Climbing FlightAware ADS-B
Mon 03:54:37 PM 42.0870 -89.1020 275° West 384 442 23,600 1,575 Climbing FlightAware ADS-B
Mon 03:55:17 PM 42.0940 -89.1980 276° West 393 452 24,600 1,412 Climbing FlightAware ADS-B
Mon 03:56:02 PM 42.0960 -89.3130 271° West 399 459 25,600 1,412 Climbing FlightAware ADS-B
Mon 03:56:42 PM 42.0960 -89.4110 270° West 402 463 26,600 1,482 Climbing FlightAware ADS-B
Mon 03:57:27 PM 42.0960 -89.5220 270° West 403 464 27,700 1,341 Climbing FlightAware ADS-B
Mon 03:58:07 PM 42.0970 -89.6220 271° West 404 465 28,500 1,275 Climbing FlightAware ADS-B
Mon 03:58:47 PM 42.0980 -89.7220 271° West 404 465 29,400 1,059 Climbing FlightAware ADS-B
Mon 03:59:32 PM 42.0990 -89.8370 271° West 401 461 30,000 424 Climbing FlightAware ADS-B
Mon 04:00:12 PM 42.0990 -89.9370 270° West 398 458 30,000  Level FlightAware ADS-B
Mon 04:00:52 PM 42.1000 -90.0360 271° West 398 458 30,000  Level FlightAware ADS-B
Mon 04:01:37 PM 42.1000 -90.1430 270° West 398 458 30,000  Level FlightAware ADS-B
Mon 04:02:17 PM 42.1000 -90.2430 270° West 398 458 30,000  Level FlightAware ADS-B
Mon 04:03:02 PM 42.1010 -90.3580 271° West 398 458 30,000  Level FlightAware ADS-B
Mon 04:03:42 PM 42.1010 -90.4550 270° West 398 458 30,000  Level FlightAware ADS-B
Mon 04:04:17 PM 42.1010 -90.5360 270° West 397 457 30,000  Level FlightAware ADS-B
Mon 04:05:07 PM 42.1010 -90.6620 270° West 395 455 30,000  Level FlightAware ADS-B
Mon 04:05:47 PM 42.1010 -90.7590 270° West 394 453 30,000  Level FlightAware ADS-B
Mon 04:06:32 PM 42.1000 -90.8680 269° West 392 451 30,000  Level FlightAware ADS-B
Mon 04:07:12 PM 42.1000 -90.9610 270° West 392 451 30,000  Level FlightAware ADS-B
Mon 04:07:57 PM 42.1000 -91.0760 270° West 391 450 30,000  Level FlightAware ADS-B
Mon 04:08:37 PM 42.0990 -91.1730 269° West 391 450 30,000  Level FlightAware ADS-B
Mon 04:09:17 PM 42.0990 -91.2710 270° West 393 452 30,000  Level FlightAware ADS-B
Mon 04:10:02 PM 42.0980 -91.3740 269° West 393 452 30,000  Level FlightAware ADS-B
Mon 04:10:42 PM 42.0970 -91.4720 269° West 393 452 30,000  Level FlightAware ADS-B
Mon 04:11:27 PM 42.0960 -91.5810 269° West 393 452 30,000  Level FlightAware ADS-B
Mon 04:12:07 PM 42.0950 -91.6800 269° West 394 453 30,000  Level FlightAware ADS-B
Mon 04:12:47 PM 42.0940 -91.7770 269° West 394 453 30,000  Level FlightAware ADS-B
Mon 04:13:22 PM 42.0930 -91.8650 269° West 393 452 30,000  Level FlightAware ADS-B
Mon 04:14:12 PM 42.0920 -91.9880 269° West 391 450 30,000  Level FlightAware ADS-B
Mon 04:14:47 PM 42.0900 -92.0720 268° West 390 449 30,000  Level FlightAware ADS-B
Mon 04:15:32 PM 42.0890 -92.1800 269° West 389 448 30,000  Level FlightAware ADS-B
Mon 04:16:47 PM 42.0860 -92.3590 269° West 388 447 30,000  Level FlightAware ADS-B
Mon 04:17:27 PM 42.0850 -92.4580 269° West 388 447 30,000  Level FlightAware ADS-B
Mon 04:18:12 PM 42.0830 -92.5670 269° West 389 448 30,000  Level FlightAware ADS-B
Mon 04:18:52 PM 42.0800 -92.6620 268° West 389 448 30,000  Level FlightAware ADS-B
Mon 04:19:32 PM 42.0790 -92.7660 269° West 388 447 30,000  Level FlightAware ADS-B
Mon 04:20:17 PM 42.0770 -92.8680 269° West 386 444 30,000  Level FlightAware ADS-B
Mon 04:20:57 PM 42.0750 -92.9600 268° West 385 443 30,000  Level FlightAware ADS-B
Mon 04:21:52 PM 42.0720 -93.0860 268° West 385 443 30,000  Level FlightAware ADS-B
Mon 04:22:32 PM 42.0700 -93.1680 268° West 385 443 30,000  Level FlightAware ADS-B
Mon 04:23:12 PM 42.0680 -93.2490 268° West 385 443 30,000  Level FlightAware ADS-B
Mon 04:24:02 PM 42.0650 -93.3510 268° West 385 443 30,000  Level FlightAware ADS-B
Mon 04:24:42 PM 42.0630 -93.4330 268° West 385 443 30,000  Level FlightAware ADS-B
Mon 04:25:22 PM 42.0610 -93.5140 268° West 385 443 30,000  Level FlightAware ADS-B
Mon 04:26:02 PM 42.0590 -93.5960 268° West 385 443 30,000  Level FlightAware ADS-B
Mon 04:26:42 PM 42.0570 -93.6770 268° West 385 443 30,000  Level FlightAware ADS-B
Mon 04:27:22 PM 42.0540 -93.7590 267° West 385 443 30,000  Level FlightAware ADS-B
Mon 04:28:12 PM 42.0520 -93.8610 269° West 385 443 30,000  Level FlightAware ADS-B
Mon 04:28:52 PM 42.0500 -93.9420 268° West 385 443 30,000  Level FlightAware ADS-B
Mon 04:29:32 PM 42.0480 -94.0240 268° West 385 443 30,000  Level FlightAware ADS-B
Mon 04:30:12 PM 42.0450 -94.1050 267° West 385 443 30,000  Level FlightAware ADS-B
Mon 04:30:52 PM 42.0430 -94.1870 268° West 385 443 30,000 2,182 Level FlightAware ADS-B
Mon 04:31:07 PM 42.0361 -94.3872 268° West 379 436 32,000 1,579 Climbing Minneapolis Center
Mon 04:32:08 PM 42.0336 -94.5294 269° West 382 440 32,000  Level Minneapolis Center
Mon 04:33:10 PM 42.0278 -94.6722 267° West 385 443 32,000  Level Minneapolis Center
Mon 04:34:12 PM 42.0222 -94.8161 267° West 386 444 32,000  Level Minneapolis Center
Mon 04:35:13 PM 42.0150 -94.9569 266° West 382 440 32,000  Level Minneapolis Center
Mon 04:36:15 PM 42.0089 -95.1275 267° West 383 441 32,000  Level Minneapolis Center
Mon 04:37:16 PM 42.0031 -95.2714 267° West 386 444 32,000  Level Minneapolis Center
Mon 04:38:18 PM 41.9969 -95.4136 267° West 384 442 32,000  Level Minneapolis Center
Mon 04:39:19 PM 41.9906 -95.5586 267° West 388 447 32,000  Level Minneapolis Center
Mon 04:40:21 PM 41.9847 -95.7022 267° West 388 447 32,000  Level Minneapolis Center
Mon 04:41:23 PM 41.9775 -95.8486 266° West 391 450 32,000  Level Minneapolis Center
Mon 04:42:25 PM 41.9706 -95.9933 266° West 391 450 32,000  Level Minneapolis Center
Mon 04:43:26 PM 41.9628 -96.1678 267° West 393 452 32,000  Level Minneapolis Center
Mon 04:44:40 PM 41.9542 -96.3428 266° West 395 455 32,000  Level Minneapolis Center
Mon 04:45:42 PM 41.9461 -96.4892 266° West 395 455 32,000  Level Minneapolis Center
Mon 04:46:43 PM 41.9381 -96.6375 266° West 398 458 32,000  Level Minneapolis Center
Mon 04:47:45 PM 41.9306 -96.7867 266° West 402 463 32,000  Level Minneapolis Center
Mon 04:48:47 PM 41.9228 -96.9353 266° West 401 461 32,000  Level Minneapolis Center
Mon 04:49:48 PM 41.9114 -97.1147 265° West 403 464 32,000  Level Minneapolis Center
Mon 04:50:50 PM 41.9036 -97.2644 266° West 403 464 32,000  Level Minneapolis Center
Mon 04:51:52 PM 41.8939 -97.4133 265° West 402 463 32,000  Level Minneapolis Center
Mon 04:52:54 PM 41.8850 -97.5628 265° West 403 464 32,000  Level Minneapolis Center
Mon 04:53:56 PM 41.8758 -97.7131 265° West 404 465 32,000  Level Minneapolis Center
Mon 04:54:57 PM 41.8672 -97.8628 266° West 404 465 32,000  Level Minneapolis Center
Mon 04:55:59 PM 41.8575 -98.0122 265° West 402 463 32,000  Level Minneapolis Center
Mon 04:57:01 PM 41.8464 -98.1683 265° West 398 458 32,000  Level Minneapolis Center
Mon 04:58:03 PM 41.8367 -98.3139 265° West 395 455 32,000  Level Minneapolis Center
Mon 04:59:05 PM 41.8242 -98.4908 265° West 398 458 32,000  Level Minneapolis Center
Mon 05:00:08 PM 41.8144 -98.6400 265° West 401 461 32,000  Level Minneapolis Center
Mon 05:01:10 PM 41.8031 -98.7908 264° West 406 467 32,000 677 Level Minneapolis Center
Mon 05:02:12 PM 41.7925 -98.9403 265° West 406 467 33,400 968 Climbing Minneapolis Center
Mon 05:03:14 PM 41.7806 -99.0858 264° West 399 459 34,000 400 Climbing Minneapolis Center
Mon 05:03:42 PM 41.7753 -99.1725 265° West 393 452 34,000  Level Denver Center
Mon 05:04:43 PM 41.7636 -99.3164 264° West 391 450 34,000  Level Denver Center
Mon 05:05:45 PM 41.7522 -99.4619 264° West 393 452 34,000  Level Denver Center
Mon 05:06:46 PM 41.7422 -99.5781 263° West 392 451 34,000  Level Denver Center
Mon 05:07:48 PM 41.7289 -99.7525 264° West 392 451 34,000  Level Denver Center
Mon 05:08:49 PM 41.7164 -99.9108 264° West 387 445 34,000  Level Denver Center
Mon 05:09:51 PM 41.7058 -100.0469 264° West 385 443 34,000  Level Denver Center
Mon 05:10:52 PM 41.6919 -100.2031 263° West 381 438 34,000  Level Denver Center
Mon 05:11:53 PM 41.6822 -100.3139 263° West 379 436 34,000  Level Denver Center
Mon 05:12:55 PM 41.6672 -100.4886 264° West 374 430 34,000  Level Denver Center
Mon 05:13:57 PM 41.6556 -100.6164 263° West 365 420 34,000  Level Denver Center
Mon 05:14:58 PM 41.6444 -100.7439 263° West 363 418 34,000  Level Denver Center
Mon 05:20:33 PM 41.5745 -101.5010 263° West 356 410 34,000  Level FlightAware ADS-B
Mon 05:21:04 PM 41.5677 -101.5700 263° West 356 410 34,000  Level FlightAware ADS-B
Mon 05:21:35 PM 41.5613 -101.6360 263° West 355 409 34,000  Level FlightAware ADS-B
Mon 05:22:05 PM 41.5550 -101.7010 263° West 353 406 34,000  Level FlightAware ADS-B
Mon 05:22:35 PM 41.5485 -101.7670 263° West 353 406 34,000  Level FlightAware ADS-B
Mon 05:23:06 PM 41.5419 -101.8330 262° West 351 404 34,000  Level FlightAware ADS-B
Mon 05:23:36 PM 41.5354 -101.8980 262° West 350 403 34,000  Level FlightAware ADS-B
Mon 05:24:07 PM 41.5291 -101.9630 263° West 349 402 34,000  Level FlightAware ADS-B
Mon 05:24:37 PM 41.5226 -102.0270 262° West 349 402 34,000  Level FlightAware ADS-B
Mon 05:25:07 PM 41.5160 -102.0910 262° West 348 400 34,000  Level FlightAware ADS-B
Mon 05:25:41 PM 41.5085 -102.1640 262° West 349 402 34,000  Level FlightAware ADS-B
Mon 05:26:12 PM 41.5019 -102.2290 262° West 351 404 34,000  Level FlightAware ADS-B
Mon 05:26:42 PM 41.4953 -102.2930 262° West 351 404 34,000  Level FlightAware ADS-B
Mon 05:27:12 PM 41.4884 -102.3590 262° West 352 405 34,000  Level FlightAware ADS-B
Mon 05:27:42 PM 41.4816 -102.4230 262° West 353 406 34,000  Level FlightAware ADS-B
Mon 05:28:13 PM 41.4749 -102.4880 262° West 353 406 34,000  Level FlightAware ADS-B
Mon 05:28:43 PM 41.4681 -102.5540 262° West 354 407 34,000  Level FlightAware ADS-B
Mon 05:29:13 PM 41.4611 -102.6190 262° West 354 407 34,000  Level FlightAware ADS-B
Mon 05:29:45 PM 41.4538 -102.6870 262° West 354 407 34,000  Level FlightAware ADS-B
Mon 05:30:15 PM 41.4468 -102.7530 262° West 357 411 34,000  Level FlightAware ADS-B
Mon 05:30:45 PM 41.4398 -102.8190 262° West 358 412 34,000  Level FlightAware ADS-B
Mon 05:31:15 PM 41.4327 -102.8840 262° West 359 413 34,000  Level FlightAware ADS-B
Mon 05:31:46 PM 41.4254 -102.9510 262° West 360 414 34,000  Level FlightAware ADS-B
Mon 05:32:16 PM 41.4180 -103.0170 262° West 358 412 34,000  Level FlightAware ADS-B
Mon 05:32:47 PM 41.4106 -103.0830 262° West 356 410 34,000  Level FlightAware ADS-B
Mon 05:33:19 PM 41.4031 -103.1510 262° West 352 405 34,000  Level FlightAware ADS-B
Mon 05:33:49 PM 41.3961 -103.2150 262° West 347 399 34,000  Level FlightAware ADS-B
Mon 05:34:19 PM 41.3890 -103.2790 262° West 346 398 34,000  Level FlightAware ADS-B
Mon 05:34:50 PM 41.3818 -103.3430 261° West 346 398 34,000  Level FlightAware ADS-B
Mon 05:35:20 PM 41.3747 -103.4060 261° West 346 398 34,000  Level FlightAware ADS-B
Mon 05:35:51 PM 41.3672 -103.4710 261° West 345 397 34,000  Level FlightAware ADS-B
Mon 05:36:22 PM 41.3596 -103.5370 261° West 343 395 34,000  Level FlightAware ADS-B
Mon 05:36:55 PM 41.3520 -103.6040 261° West 342 394 34,000  Level FlightAware ADS-B
Mon 05:37:26 PM 41.3446 -103.6680 261° West 341 392 34,000  Level FlightAware ADS-B
Mon 05:37:57 PM 41.3371 -103.7320 261° West 340 391 34,000  Level FlightAware ADS-B
Mon 05:38:27 PM 41.3297 -103.7940 261° West 339 390 34,000  Level FlightAware ADS-B
Mon 05:38:57 PM 41.3225 -103.8560 261° West 338 389 34,000  Level FlightAware ADS-B
Mon 05:39:27 PM 41.3153 -103.9180 261° West 338 389 34,000  Level FlightAware ADS-B
Mon 05:39:58 PM 41.3079 -103.9800 261° West 337 388 34,000  Level FlightAware ADS-B
Mon 05:40:28 PM 41.3006 -104.0420 261° West 337 388 34,000  Level FlightAware ADS-B
Mon 05:40:58 PM 41.2931 -104.1040 261° West 337 388 34,000  Level FlightAware ADS-B
Mon 05:41:32 PM 41.2847 -104.1730 261° West 338 389 34,000  Level FlightAware ADS-B
Mon 05:42:02 PM 41.2773 -104.2350 261° West 339 390 34,000  Level FlightAware ADS-B
Mon 05:42:33 PM 41.2696 -104.2990 261° West 339 390 34,000  Level FlightAware ADS-B
Mon 05:43:04 PM 41.2618 -104.3630 261° West 339 390 34,000  Level FlightAware ADS-B
Mon 05:43:38 PM 41.2532 -104.4330 261° West 339 390 34,000  Level FlightAware ADS-B
Mon 05:44:09 PM 41.2456 -104.4950 261° West 338 389 34,000  Level FlightAware ADS-B
Mon 05:44:39 PM 41.2379 -104.5570 261° West 337 388 34,000  Level FlightAware ADS-B
Mon 05:45:10 PM 41.2301 -104.6200 261° West 338 389 34,000  Level FlightAware ADS-B
Mon 05:45:41 PM 41.2222 -104.6830 261° West 339 390 34,000  Level FlightAware ADS-B
Mon 05:46:10 PM 41.2146 -104.7430 260° West 338 389 34,000  Level FlightAware ADS-B
Mon 05:46:20 PM 41.2114 -104.7620 257° West 340 391 34,000  Level FlightAware ADS-B
Mon 05:46:36 PM 41.2035 -104.7940 252° West 345 397 34,000  Level FlightAware ADS-B
Mon 05:47:10 PM 41.1807 -104.8610 246° West 347 399 34,000  Level FlightAware ADS-B
Mon 05:47:41 PM 41.1604 -104.9200 245° Southwest 348 400 34,000  Level FlightAware ADS-B
Mon 05:48:11 PM 41.1401 -104.9790 245° Southwest 349 402 34,000  Level FlightAware ADS-B
Mon 05:48:41 PM 41.1199 -105.0370 245° Southwest 348 400 34,000  Level FlightAware ADS-B
Mon 05:49:12 PM 41.0990 -105.0970 245° Southwest 349 402 34,000  Level FlightAware ADS-B
Mon 05:49:44 PM 41.0780 -105.1580 245° Southwest 347 399 34,000  Level FlightAware ADS-B
Mon 05:50:16 PM 41.0561 -105.2210 245° Southwest 345 397 34,000  Level FlightAware ADS-B
Mon 05:50:55 PM 41.0303 -105.2940 245° Southwest 343 395 34,000  Level FlightAware ADS-B
Mon 05:51:52 PM 40.9940 -105.3980 245° Southwest 340 391 34,000  Level FlightAware ADS-B
Mon 05:52:02 PM 40.9859 -105.4210 245° Southwest 343 395 34,000  Level FlightAware ADS-B
Mon 05:52:32 PM 40.9670 -105.4760 246° West 339 390 34,000  Level FlightAware ADS-B
Mon 05:52:58 PM 40.9490 -105.5260 245° Southwest 343 395 34,000  Level FlightAware ADS-B
Mon 05:53:44 PM 40.9188 -105.6120 245° Southwest 340 391 34,000  Level FlightAware ADS-B
Mon 05:54:42 PM 40.8810 -105.7190 245° Southwest 337 388 34,000  Level FlightAware ADS-B
Mon 05:55:22 PM 40.8550 -105.7910 244° Southwest 336 387 34,000  Level FlightAware ADS-B
Mon 05:56:02 PM 40.8290 -105.8650 245° Southwest 333 383 34,000  Level FlightAware ADS-B
Mon 05:56:47 PM 40.7990 -105.9500 245° Southwest 332 382 34,000  Level FlightAware ADS-B
Mon 05:57:27 PM 40.7720 -106.0230 244° Southwest 330 380 34,000  Level FlightAware ADS-B
Mon 05:58:12 PM 40.7440 -106.1000 244° Southwest 327 376 34,000  Level FlightAware ADS-B
Mon 05:58:52 PM 40.7180 -106.1750 245° Southwest 335 386 34,000  Level FlightAware ADS-B
Mon 05:59:32 PM 40.6910 -106.2490 244° Southwest 335 386 34,000  Level FlightAware ADS-B
Mon 06:00:12 PM 40.6660 -106.3180 244° Southwest 335 386 34,000  Level FlightAware ADS-B
Mon 06:00:57 PM 40.6380 -106.3940 244° Southwest 335 386 34,000  Level FlightAware ADS-B
Mon 06:01:42 PM 40.6040 -106.4880 245° Southwest 335 386 34,000  Level FlightAware ADS-B
Mon 06:04:22 PM 40.4960 -106.7820 244° Southwest 337 388 34,000  Level FlightAware ADS-B
Mon 06:05:12 PM 40.4650 -106.8670 244° Southwest 337 388 34,000  Level FlightAware ADS-B
Mon 06:06:02 PM 40.4360 -106.9450 244° Southwest 337 388 34,000  Level FlightAware ADS-B
Mon 06:10:12 PM 40.2910 -107.3360 244° Southwest 337 388 34,000  Level FlightAware ADS-B
Mon 06:10:52 PM 40.2680 -107.3980 244° Southwest 337 388 34,000  Level FlightAware ADS-B
Mon 06:11:32 PM 40.2440 -107.4610 243° Southwest 337 388 34,000  Level FlightAware ADS-B
Mon 06:12:12 PM 40.2210 -107.5230 244° Southwest 337 388 34,000  Level FlightAware ADS-B
Mon 06:13:02 PM 40.1920 -107.6010 244° Southwest 337 388 34,000  Level FlightAware ADS-B
Mon 06:13:42 PM 40.1690 -107.6640 244° Southwest 337 388 34,000  Level FlightAware ADS-B
Mon 06:14:22 PM 40.1460 -107.7260 244° Southwest 337 388 34,000  Level FlightAware ADS-B
Mon 06:14:43 PM 40.0678 -107.9272 244° Southwest 345 397 34,000  Level Salt Lake Center
Mon 06:14:58 PM 40.0508 -107.9611 237° Southwest 345 397 34,000  Level Denver Center
Mon 06:16:00 PM 39.9978 -108.0622 236° Southwest 352 405 34,000  Level Denver Center
Mon 06:17:02 PM 39.9372 -108.1814 236° Southwest 353 406 34,000  Level Denver Center
Mon 06:18:03 PM 39.8858 -108.2814 236° Southwest 348 400 34,000  Level Denver Center
Mon 06:19:05 PM 39.8353 -108.3814 237° Southwest 335 386 34,000  Level Denver Center
Mon 06:20:07 PM 39.7739 -108.4989 236° Southwest 350 403 34,000  Level Denver Center
Mon 06:21:08 PM 39.7217 -108.6003 236° Southwest 352 405 34,000  Level Denver Center
Mon 06:22:10 PM 39.6603 -108.7175 236° Southwest 352 405 34,000  Level Denver Center
Mon 06:23:12 PM 39.6028 -108.8294 236° Southwest 358 412 34,000  Level Denver Center
Mon 06:24:13 PM 39.5497 -108.9306 236° Southwest 355 409 34,000  Level Denver Center
Mon 06:25:15 PM 39.4953 -109.0333 236° Southwest 360 414 34,000  Level Denver Center
Mon 06:26:16 PM 39.4311 -109.1556 236° Southwest 366 421 34,000  Level Denver Center
Mon 06:27:18 PM 39.3756 -109.2606 236° Southwest 370 426 34,000  Level Denver Center
Mon 06:28:03 PM 39.3294 -109.3467 235° Southwest 366 421 34,000  Level Salt Lake Center
Mon 06:29:04 PM 39.2744 -109.4514 236° Southwest 367 422 34,000  Level Salt Lake Center
Mon 06:30:06 PM 39.2111 -109.5719 236° Southwest 364 419 34,000  Level Salt Lake Center
Mon 06:31:07 PM 39.1558 -109.6761 236° Southwest 367 422 34,000  Level Salt Lake Center
Mon 06:31:24 PM 39.1372 -109.7097 234° Southwest 367 422 34,000  Level Denver Center
Mon 06:32:26 PM 39.0828 -109.8136 236° Southwest 364 419 34,000  Level Denver Center
Mon 06:33:10 PM 39.0350 -109.9014 235° Southwest 371 427 34,000  Level Salt Lake Center
Mon 06:34:12 PM 38.9794 -110.0042 235° Southwest 366 421 34,000  Level Salt Lake Center
Mon 06:35:13 PM 38.9142 -110.1256 235° Southwest 368 423 34,000  Level Salt Lake Center
Mon 06:36:15 PM 38.8569 -110.2306 235° Southwest 374 430 34,000  Level Salt Lake Center
Mon 06:36:32 PM 38.8378 -110.2656 235° Southwest 374 430 34,000  Level Denver Center
Mon 06:37:33 PM 38.7794 -110.3697 234° Southwest 375 432 34,000  Level Denver Center
Mon 06:38:18 PM 38.7333 -110.4578 236° Southwest 374 430 34,000  Level Salt Lake Center
Mon 06:39:19 PM 38.6656 -110.5803 235° Southwest 377 434 34,000  Level Salt Lake Center
Mon 06:40:21 PM 38.6072 -110.6861 235° Southwest 380 437 34,000  Level Salt Lake Center
Mon 06:41:22 PM 38.5494 -110.7917 235° Southwest 379 436 34,000  Level Salt Lake Center
Mon 06:42:24 PM 38.4800 -110.9158 234° Southwest 383 441 34,000  Level Salt Lake Center
Mon 06:43:25 PM 38.4133 -111.0350 234° Southwest 390 449 34,000  Level Salt Lake Center
Mon 06:44:27 PM 38.3511 -111.1442 234° Southwest 384 442 34,000  Level Salt Lake Center
Mon 06:45:28 PM 38.2892 -111.2561 235° Southwest 384 442 34,000  Level Salt Lake Center
Mon 06:46:59 PM 38.1994 -111.4136 234° Southwest 395 455 34,000  Level Denver Center
Mon 06:47:31 PM 38.1614 -111.4822 235° Southwest 394 453 34,000  Level Salt Lake Center
Mon 06:48:33 PM 38.0975 -111.5964 235° Southwest 397 457 34,000  Level Salt Lake Center
Mon 06:49:34 PM 38.0300 -111.7075 232° Southwest 397 457 34,000  Level Salt Lake Center
Mon 06:50:36 PM 37.9661 -111.8203 234° Southwest 396 456 34,000  Level Salt Lake Center
Mon 06:51:37 PM 37.9022 -111.9333 234° Southwest 395 455 34,000  Level Salt Lake Center
Mon 06:52:39 PM 37.8269 -112.0650 234° Southwest 387 445 34,000  Level Salt Lake Center
Mon 06:53:40 PM 37.7611 -112.1789 234° Southwest 400 460 34,000  Level Salt Lake Center
Mon 06:54:42 PM 37.6950 -112.2933 234° Southwest 402 463 34,000  Level Salt Lake Center
Mon 07:00:37 PM 37.2720 -112.9530 234° Southwest 403 464 34,000  Level FlightAware ADS-B
Mon 07:01:22 PM 37.2240 -113.0240 230° Southwest 403 464 34,000  Level FlightAware ADS-B
Mon 07:02:02 PM 37.1710 -113.1090 232° Southwest 405 466 34,000  Level FlightAware ADS-B
Mon 07:02:47 PM 37.1190 -113.1890 231° Southwest 405 466 34,000  Level FlightAware ADS-B
Mon 07:03:27 PM 37.0700 -113.2630 230° Southwest 406 467 34,000  Level FlightAware ADS-B
Mon 07:04:12 PM 37.0160 -113.3450 231° Southwest 404 465 34,000  Level FlightAware ADS-B
Mon 07:04:52 PM 36.9690 -113.4170 231° Southwest 403 464 34,000  Level FlightAware ADS-B
Mon 07:05:32 PM 36.9210 -113.4900 231° Southwest 404 465 34,000  Level FlightAware ADS-B
Mon 07:06:17 PM 36.8690 -113.5680 230° Southwest 407 468 34,000  Level FlightAware ADS-B
Mon 07:06:57 PM 36.8200 -113.6410 230° Southwest 408 470 34,000  Level FlightAware ADS-B
Mon 07:07:42 PM 36.7660 -113.7240 231° Southwest 409 471 34,000  Level FlightAware ADS-B
Mon 07:08:22 PM 36.7160 -113.7980 230° Southwest 410 472 34,000  Level FlightAware ADS-B
Mon 07:09:02 PM 36.6680 -113.8710 231° Southwest 413 475 34,000  Level FlightAware ADS-B
Mon 07:09:47 PM 36.6150 -113.9510 230° Southwest 413 475 34,000  Level FlightAware ADS-B
Mon 07:10:27 PM 36.5650 -114.0240 230° Southwest 411 473 34,000  Level FlightAware ADS-B
Mon 07:11:12 PM 36.5110 -114.1060 231° Southwest 414 476 34,000  Level FlightAware ADS-B
Mon 07:11:52 PM 36.4610 -114.1790 230° Southwest 413 475 34,000  Level FlightAware ADS-B
Mon 07:12:32 PM 36.4120 -114.2530 231° Southwest 414 476 34,000  Level FlightAware ADS-B
Mon 07:13:17 PM 36.3560 -114.3360 230° Southwest 415 478 34,000  Level FlightAware ADS-B
Mon 07:13:57 PM 36.3060 -114.4100 230° Southwest 418 481 34,000  Level FlightAware ADS-B
Mon 07:14:37 PM 36.2560 -114.4830 230° Southwest 423 487 34,000  Level FlightAware ADS-B
Mon 07:15:22 PM 36.2000 -114.5640 229° Southwest 425 489 34,000  Level FlightAware ADS-B
Mon 07:16:02 PM 36.1490 -114.6390 230° Southwest 426 490 34,000  Level FlightAware ADS-B
Mon 07:16:47 PM 36.0910 -114.7250 230° Southwest 429 494 34,000  Level FlightAware ADS-B
Mon 07:17:27 PM 36.0390 -114.8000 229° Southwest 429 494 34,000  Level FlightAware ADS-B
Mon 07:18:07 PM 35.9880 -114.8750 230° Southwest 430 495 34,000  Level FlightAware ADS-B
Mon 07:18:52 PM 35.9280 -114.9560 228° Southwest 429 494 34,000  Level FlightAware ADS-B
Mon 07:19:32 PM 35.8760 -115.0260 227° Southwest 428 493 34,000  Level FlightAware ADS-B
Mon 07:20:17 PM 35.8150 -115.1100 228° Southwest 426 490 34,000  Level FlightAware ADS-B
Mon 07:20:57 PM 35.7630 -115.1810 228° Southwest 426 490 34,000  Level FlightAware ADS-B
Mon 07:21:37 PM 35.7080 -115.2540 227° Southwest 426 490 34,000  Level FlightAware ADS-B
Mon 07:22:22 PM 35.6510 -115.3320 228° Southwest 428 493 34,000  Level FlightAware ADS-B
Mon 07:23:02 PM 35.5970 -115.4040 227° Southwest 428 493 34,000  Level FlightAware ADS-B
Mon 07:23:47 PM 35.5360 -115.4860 228° Southwest 429 494 34,000  Level FlightAware ADS-B
Mon 07:24:27 PM 35.4820 -115.5590 228° Southwest 428 493 34,000  Level FlightAware ADS-B
Mon 07:25:07 PM 35.4300 -115.6270 227° Southwest 428 493 34,000  Level FlightAware ADS-B
Mon 07:25:52 PM 35.3680 -115.7110 228° Southwest 428 493 34,000  Level FlightAware ADS-B
Mon 07:26:32 PM 35.3150 -115.7810 227° Southwest 426 490 34,000  Level FlightAware ADS-B
Mon 07:27:17 PM 35.2590 -115.8560 228° Southwest 423 487 34,000  Level FlightAware ADS-B
Mon 07:27:57 PM 35.2040 -115.9290 227° Southwest 422 486 34,000  Level FlightAware ADS-B
Mon 07:28:42 PM 35.1420 -116.0100 227° Southwest 422 486 34,000  Level FlightAware ADS-B
Mon 07:29:37 PM 35.0730 -116.0950 225° Southwest 423 487 34,000  Level FlightAware ADS-B
Mon 07:30:17 PM 35.0250 -116.1510 224° Southwest 423 487 34,000  Level FlightAware ADS-B
Mon 07:30:57 PM 34.9480 -116.2230 217° Southwest 425 489 34,000  Level FlightAware ADS-B
Mon 07:31:42 PM 34.8800 -116.2960 221° Southwest 425 489 34,000  Level FlightAware ADS-B
Mon 07:32:22 PM 34.8270 -116.3520 221° Southwest 424 488 34,000 -353 Level FlightAware ADS-B
Mon 07:33:07 PM 34.7530 -116.4310 221° Southwest 425 489 33,500 -776 Descending FlightAware ADS-B
Mon 07:33:47 PM 34.6950 -116.4930 221° Southwest 425 489 32,900 -1,050 Descending FlightAware ADS-B
Mon 07:34:27 PM 34.6340 -116.5570 221° Southwest 430 495 32,100 -1,694 Descending FlightAware ADS-B
Mon 07:35:12 PM 34.5690 -116.6260 221° Southwest 419 482 30,500 -2,188 Descending FlightAware ADS-B
Mon 07:35:52 PM 34.5100 -116.6880 221° Southwest 411 473 29,000 -2,100 Descending FlightAware ADS-B
Mon 07:36:32 PM 34.4560 -116.7450 221° Southwest 404 465 27,700 -2,118 Descending FlightAware ADS-B
Mon 07:37:17 PM 34.3900 -116.8140 221° Southwest 396 456 26,000 -2,067 Descending FlightAware ADS-B
Mon 07:38:02 PM 34.3330 -116.8740 221° Southwest 389 448 24,600 -2,047 Descending FlightAware ADS-B
Mon 07:38:42 PM 34.2760 -116.9330 221° Southwest 381 438 23,100 -2,025 Descending FlightAware ADS-B
Mon 07:39:22 PM 34.2240 -116.9870 221° Southwest 374 430 21,900 -1,976 Descending FlightAware ADS-B
Mon 07:40:07 PM 34.1630 -117.0510 221° Southwest 367 422 20,300 -2,047 Descending FlightAware ADS-B
Mon 07:40:47 PM 34.1130 -117.1060 222° Southwest 358 412 19,000 -1,765 Descending FlightAware ADS-B
Mon 07:41:32 PM 34.0770 -117.1780 239° Southwest 343 395 17,800 -1,765 Descending FlightAware ADS-B
Mon 07:42:12 PM 34.0510 -117.2450 245° Southwest 336 387 16,500 -1,875 Descending FlightAware ADS-B
Mon 07:42:52 PM 34.0410 -117.3210 261° West 326 375 15,300 -1,835 Descending FlightAware ADS-B
Mon 07:43:37 PM 34.0340 -117.4020 264° West 320 368 13,900 -1,835 Descending FlightAware ADS-B
Mon 07:44:17 PM 34.0270 -117.4720 263° West 315 362 12,700 -1,765 Descending FlightAware ADS-B
Mon 07:45:02 PM 34.0200 -117.5480 264° West 312 359 11,400 -1,624 Descending FlightAware ADS-B
Mon 07:45:42 PM 34.0130 -117.6180 263° West 305 351 10,400 -1,050 Descending FlightAware ADS-B
Mon 07:46:22 PM 34.0070 -117.6820 264° West 292 336 10,000 -857 Descending FlightAware ADS-B
Mon 07:46:52 PM 34.0020 -117.7300 263° West 283 326 9,400 -1,309 Descending FlightAware ADS-B
Mon 07:47:17 PM 33.9990 -117.7700 265° West 271 312 8,800 -1,309 Descending FlightAware ADS-B
Mon 07:47:47 PM 33.9950 -117.8130 264° West 258 297 8,200 -1,200 Descending FlightAware ADS-B
Mon 07:48:17 PM 33.9900 -117.8550 262° West 252 290 7,600 -1,200 Descending FlightAware ADS-B
Mon 07:48:42 PM 33.9870 -117.8880 264° West 252 290 7,100 -1,091 Descending FlightAware ADS-B
Mon 07:49:12 PM 33.9830 -117.9300 263° West 245 282 6,600 -873 Descending FlightAware ADS-B
Mon 07:49:37 PM 33.9790 -117.9650 262° West 237 273 6,300 -873 Descending FlightAware ADS-B
Mon 07:50:07 PM 33.9750 -118.0040 263° West 233 268 5,800 -873 Descending FlightAware ADS-B
Mon 07:50:32 PM 33.9720 -118.0340 263° West 228 262 5,500 -764 Descending FlightAware ADS-B
Mon 07:51:02 PM 33.9690 -118.0720 265° West 229 264 5,100 -933 Descending FlightAware ADS-B
Mon 07:51:17 PM 33.9670 -118.0920 263° West 227 261 4,800 -1,200 Descending FlightAware ADS-B
Mon 07:51:47 PM 33.9630 -118.1310 263° West 229 264 4,200 -1,091 Descending FlightAware ADS-B
Mon 07:52:12 PM 33.9600 -118.1600 263° West 219 252 3,800 -1,080 Descending FlightAware ADS-B
Mon 07:52:37 PM 33.9570 -118.1910 263° West 216 249 3,300 -1,200 Descending FlightAware ADS-B
Mon 07:53:07 PM 33.9530 -118.2260 262° West 210 242 2,700 -1,200 Descending FlightAware ADS-B
Mon 07:53:37 PM 33.9500 -118.2590 264° West 190 219 2,100 -1,080 Descending FlightAware ADS-B
Mon 07:53:57 PM 33.9480 -118.2780 263° West 185 213 1,800 -655 Descending FlightAware ADS-B
Mon 07:54:32 PM 33.9460 -118.3010 264° West 172 198 1,500 -462 Descending FlightAware ADS-B
Mon 07:55:02 PM 33.9420 -118.3300 261° West 167 192 1,300 -873 Descending FlightAware ADS-B
Mon 07:55:27 PM 33.9410 -118.3490 266° West 153 176 700 -1,091 Descending FlightAware ADS-B
Mon 07:55:57 PM 33.9380 -118.3740 262° West 148 170 300 -462 Descending FlightAware ADS-B
Mon 07:56:32 PM 33.9360 -118.3990 264° West 150 173 200 -171 Descending FlightAware ADS-B

Login

Don't have an account? Register now (free) for customized features, flight alerts, and more!